sensor_id;sensor_type;location;lat;lon;timestamp;pressure;altitude;pressure_sealevel;temperature;humidity
48390;BME280;34643;47.964;7.982;2023-05-20T00:01:52;96752.91;;;16.25;62.13
48390;BME280;34643;47.964;7.982;2023-05-20T00:06:52;96742.50;;;16.25;62.11
48390;BME280;34643;47.964;7.982;2023-05-20T00:11:53;96748.66;;;16.24;62.13
48390;BME280;34643;47.964;7.982;2023-05-20T00:16:54;96743.56;;;16.22;62.10
48390;BME280;34643;47.964;7.982;2023-05-20T00:21:54;96745.31;;;16.22;61.94
48390;BME280;34643;47.964;7.982;2023-05-20T00:26:56;96742.69;;;16.22;62.13
48390;BME280;34643;47.964;7.982;2023-05-20T00:31:57;96734.06;;;16.21;61.74
48390;BME280;34643;47.964;7.982;2023-05-20T00:36:57;96736.56;;;16.23;62.17
48390;BME280;34643;47.964;7.982;2023-05-20T00:41:57;96727.06;;;16.22;62.23
48390;BME280;34643;47.964;7.982;2023-05-20T00:46:59;96731.34;;;16.23;62.42
48390;BME280;34643;47.964;7.982;2023-05-20T00:52:00;96713.94;;;16.23;62.47
48390;BME280;34643;47.964;7.982;2023-05-20T00:57:00;96708.84;;;16.22;62.25
48390;BME280;34643;47.964;7.982;2023-05-20T01:02:02;96707.91;;;16.23;62.42
48390;BME280;34643;47.964;7.982;2023-05-20T01:07:04;96703.63;;;16.22;62.46
48390;BME280;34643;47.964;7.982;2023-05-20T01:12:08;96701.78;;;16.24;62.78
48390;BME280;34643;47.964;7.982;2023-05-20T01:17:11;96704.38;;;16.24;62.79
48390;BME280;34643;47.964;7.982;2023-05-20T01:22:16;96699.19;;;16.24;62.54
48390;BME280;34643;47.964;7.982;2023-05-20T01:27:17;96700.09;;;16.23;62.56
48390;BME280;34643;47.964;7.982;2023-05-20T01:37:19;96688.88;;;16.22;62.68
48390;BME280;34643;47.964;7.982;2023-05-20T01:42:21;96691.47;;;16.22;62.44
48390;BME280;34643;47.964;7.982;2023-05-20T01:47:22;96688.00;;;16.22;62.53
48390;BME280;34643;47.964;7.982;2023-05-20T01:52:22;96681.88;;;16.23;62.36
48390;BME280;34643;47.964;7.982;2023-05-20T01:57:22;96681.88;;;16.23;62.58
48390;BME280;34643;47.964;7.982;2023-05-20T02:02:24;96680.19;;;16.22;62.37
48390;BME280;34643;47.964;7.982;2023-05-20T02:07:24;96673.25;;;16.22;62.51
48390;BME280;34643;47.964;7.982;2023-05-20T02:12:25;96667.19;;;16.22;62.71
48390;BME280;34643;47.964;7.982;2023-05-20T02:17:27;96664.56;;;16.22;62.68
48390;BME280;34643;47.964;7.982;2023-05-20T02:22:27;96667.19;;;16.22;62.97
48390;BME280;34643;47.964;7.982;2023-05-20T02:27:28;96673.34;;;16.21;62.49
48390;BME280;34643;47.964;7.982;2023-05-20T02:32:28;96668.13;;;16.21;62.70
48390;BME280;34643;47.964;7.982;2023-05-20T02:37:28;96663.84;;;16.20;62.39
48390;BME280;34643;47.964;7.982;2023-05-20T02:42:29;96668.13;;;16.21;62.84
48390;BME280;34643;47.964;7.982;2023-05-20T02:47:29;96661.25;;;16.20;62.78
48390;BME280;34643;47.964;7.982;2023-05-20T02:52:29;96659.59;;;16.19;62.65
48390;BME280;34643;47.964;7.982;2023-05-20T02:57:30;96657.81;;;16.19;62.59
48390;BME280;34643;47.964;7.982;2023-05-20T03:02:31;96650.94;;;16.18;62.46
48390;BME280;34643;47.964;7.982;2023-05-20T03:07:33;96651.91;;;16.17;62.26
48390;BME280;34643;47.964;7.982;2023-05-20T03:12:33;96648.44;;;16.16;62.12
48390;BME280;34643;47.964;7.982;2023-05-20T03:17:33;96645.97;;;16.15;61.71
48390;BME280;34643;47.964;7.982;2023-05-20T03:22:34;96644.19;;;16.15;61.73
48390;BME280;34643;47.964;7.982;2023-05-20T03:27:34;96639.91;;;16.14;62.05
48390;BME280;34643;47.964;7.982;2023-05-20T03:32:36;96630.47;;;16.13;62.06
48390;BME280;34643;47.964;7.982;2023-05-20T03:37:36;96625.25;;;16.13;62.17
48390;BME280;34643;47.964;7.982;2023-05-20T03:42:37;96631.28;;;16.14;62.24
48390;BME280;34643;47.964;7.982;2023-05-20T03:47:37;96632.09;;;16.14;62.02
48390;BME280;34643;47.964;7.982;2023-05-20T03:52:39;96635.66;;;16.13;61.83
48390;BME280;34643;47.964;7.982;2023-05-20T03:57:40;96640.97;;;16.12;62.15
48390;BME280;34643;47.964;7.982;2023-05-20T04:02:41;96630.66;;;16.10;61.87
48390;BME280;34643;47.964;7.982;2023-05-20T04:07:41;96633.16;;;16.12;61.46
48390;BME280;34643;47.964;7.982;2023-05-20T04:12:42;96632.22;;;16.13;62.31
48390;BME280;34643;47.964;7.982;2023-05-20T04:17:42;96629.59;;;16.13;62.19
48390;BME280;34643;47.964;7.982;2023-05-20T04:22:47;96625.34;;;16.12;61.79
48390;BME280;34643;47.964;7.982;2023-05-20T04:27:48;96623.69;;;16.11;61.69
48390;BME280;34643;47.964;7.982;2023-05-20T04:32:49;96618.47;;;16.11;61.83
48390;BME280;34643;47.964;7.982;2023-05-20T04:37:49;96630.66;;;16.10;61.64
48390;BME280;34643;47.964;7.982;2023-05-20T04:42:52;96629.84;;;16.10;61.80
48390;BME280;34643;47.964;7.982;2023-05-20T04:47:54;96622.97;;;16.09;61.54
48390;BME280;34643;47.964;7.982;2023-05-20T04:52:54;96633.38;;;16.09;61.80
48390;BME280;34643;47.964;7.982;2023-05-20T04:57:54;96637.75;;;16.08;61.99
48390;BME280;34643;47.964;7.982;2023-05-20T05:02:55;96633.38;;;16.09;62.02
48390;BME280;34643;47.964;7.982;2023-05-20T05:07:55;96634.19;;;16.09;61.62
48390;BME280;34643;47.964;7.982;2023-05-20T05:12:56;96629.00;;;16.09;62.24
48390;BME280;34643;47.964;7.982;2023-05-20T05:17:56;96615.97;;;16.09;62.04
48390;BME280;34643;47.964;7.982;2023-05-20T05:22:57;96610.75;;;16.09;62.24
48390;BME280;34643;47.964;7.982;2023-05-20T05:27:57;96611.63;;;16.10;62.07
48390;BME280;34643;47.964;7.982;2023-05-20T05:32:58;96614.22;;;16.10;62.53
48390;BME280;34643;47.964;7.982;2023-05-20T05:37:59;96602.84;;;16.11;62.55
48390;BME280;34643;47.964;7.982;2023-05-20T05:42:59;96607.22;;;16.10;62.32
48390;BME280;34643;47.964;7.982;2023-05-20T05:47:59;96603.91;;;16.08;62.16
48390;BME280;34643;47.964;7.982;2023-05-20T05:53:00;96596.09;;;16.08;61.94
48390;BME280;34643;47.964;7.982;2023-05-20T05:58:00;96592.53;;;16.09;62.67
48390;BME280;34643;47.964;7.982;2023-05-20T06:03:02;96585.69;;;16.08;62.22
48390;BME280;34643;47.964;7.982;2023-05-20T06:08:06;96582.72;;;16.13;62.89
48390;BME280;34643;47.964;7.982;2023-05-20T06:13:09;96584.25;;;16.04;62.04
48390;BME280;34643;47.964;7.982;2023-05-20T06:18:11;96598.16;;;15.92;61.65
48390;BME280;34643;47.964;7.982;2023-05-20T06:23:11;96589.31;;;15.82;61.28
48390;BME280;34643;47.964;7.982;2023-05-20T06:28:21;96586.09;;;15.78;61.59
48390;BME280;34643;47.964;7.982;2023-05-20T06:33:24;96578.50;;;15.75;61.54
48390;BME280;34643;47.964;7.982;2023-05-20T06:38:26;96571.00;;;15.70;61.61
48390;BME280;34643;47.964;7.982;2023-05-20T06:43:26;96569.97;;;15.73;61.52
48390;BME280;34643;47.964;7.982;2023-05-20T06:48:36;96561.00;;;15.77;61.52
48390;BME280;34643;47.964;7.982;2023-05-20T06:53:36;96567.56;;;15.83;61.54
48390;BME280;34643;47.964;7.982;2023-05-20T06:58:37;96560.97;;;15.90;61.52
48390;BME280;34643;47.964;7.982;2023-05-20T07:03:37;96570.38;;;16.04;62.96
48390;BME280;34643;47.964;7.982;2023-05-20T07:08:38;96566.03;;;16.04;62.67
48390;BME280;34643;47.964;7.982;2023-05-20T07:13:39;96564.47;;;16.02;62.70
48390;BME280;34643;47.964;7.982;2023-05-20T07:18:39;96562.56;;;16.04;62.68
48390;BME280;34643;47.964;7.982;2023-05-20T07:23:40;96552.06;;;16.05;62.72
48390;BME280;34643;47.964;7.982;2023-05-20T07:28:40;96544.25;;;16.05;62.96
48390;BME280;34643;47.964;7.982;2023-05-20T07:33:40;96537.16;;;16.07;63.02
48390;BME280;34643;47.964;7.982;2023-05-20T07:38:42;96529.34;;;16.07;63.00
48390;BME280;34643;47.964;7.982;2023-05-20T07:43:43;96534.53;;;16.07;62.95
48390;BME280;34643;47.964;7.982;2023-05-20T07:48:43;96525.81;;;16.08;62.98
48390;BME280;34643;47.964;7.982;2023-05-20T07:53:45;96530.06;;;16.09;62.80
48390;BME280;34643;47.964;7.982;2023-05-20T07:58:53;96522.25;;;16.09;62.93
48390;BME280;34643;47.964;7.982;2023-05-20T08:03:54;96523.09;;;16.10;62.89
48390;BME280;34643;47.964;7.982;2023-05-20T08:08:56;96523.91;;;16.10;62.88
48390;BME280;34643;47.964;7.982;2023-05-20T08:14:02;96520.50;;;16.10;62.64
48390;BME280;34643;47.964;7.982;2023-05-20T08:19:07;96519.63;;;16.09;62.88
48390;BME280;34643;47.964;7.982;2023-05-20T08:24:07;96518.59;;;16.12;62.85
48390;BME280;34643;47.964;7.982;2023-05-20T08:29:09;96524.75;;;16.11;62.86
48390;BME280;34643;47.964;7.982;2023-05-20T08:34:09;96528.19;;;16.11;62.78
48390;BME280;34643;47.964;7.982;2023-05-20T08:39:10;96527.34;;;16.11;62.76
48390;BME280;34643;47.964;7.982;2023-05-20T08:44:11;96534.22;;;16.12;62.76
48390;BME280;34643;47.964;7.982;2023-05-20T08:49:12;96529.84;;;16.12;62.76
48390;BME280;34643;47.964;7.982;2023-05-20T08:54:12;96525.59;;;16.11;62.62
48390;BME280;34643;47.964;7.982;2023-05-20T08:59:13;96538.59;;;16.11;62.67
48390;BME280;34643;47.964;7.982;2023-05-20T09:04:14;96538.47;;;16.13;62.82
48390;BME280;34643;47.964;7.982;2023-05-20T09:09:14;96535.88;;;16.13;62.72
48390;BME280;34643;47.964;7.982;2023-05-20T09:14:15;96533.16;;;16.14;62.82
48390;BME280;34643;47.964;7.982;2023-05-20T09:19:16;96527.13;;;16.14;62.87
48390;BME280;34643;47.964;7.982;2023-05-20T09:24:19;96527.03;;;16.15;62.97
48390;BME280;34643;47.964;7.982;2023-05-20T09:29:19;96526.06;;;16.16;62.80
48390;BME280;34643;47.964;7.982;2023-05-20T09:34:20;96526.06;;;16.16;63.07
48390;BME280;34643;47.964;7.982;2023-05-20T09:39:23;96522.53;;;16.18;62.94
48390;BME280;34643;47.964;7.982;2023-05-20T09:44:24;96509.41;;;16.19;62.68
48390;BME280;34643;47.964;7.982;2023-05-20T09:49:25;96505.81;;;16.20;62.85
48390;BME280;34643;47.964;7.982;2023-05-20T09:54:28;96515.41;;;16.20;62.90
48390;BME280;34643;47.964;7.982;2023-05-20T09:59:28;96510.94;;;16.22;63.02
48390;BME280;34643;47.964;7.982;2023-05-20T10:04:30;96510.94;;;16.22;62.98
48390;BME280;34643;47.964;7.982;2023-05-20T10:19:56;96508.09;;;16.25;63.15
48390;BME280;34643;47.964;7.982;2023-05-20T10:24:57;96501.25;;;16.24;62.85
48390;BME280;34643;47.964;7.982;2023-05-20T10:29:58;96508.94;;;16.25;63.10
48390;BME280;34643;47.964;7.982;2023-05-20T10:35:02;96494.03;;;16.27;62.99
48390;BME280;34643;47.964;7.982;2023-05-20T10:45:07;96493.91;;;16.29;62.98
48390;BME280;34643;47.964;7.982;2023-05-20T10:50:13;96492.03;;;16.31;63.04
48390;BME280;34643;47.964;7.982;2023-05-20T10:55:25;96492.03;;;16.31;63.06
48390;BME280;34643;47.964;7.982;2023-05-20T11:00:25;96482.56;;;16.30;63.15
48390;BME280;34643;47.964;7.982;2023-05-20T11:05:26;96477.22;;;16.31;63.04
48390;BME280;34643;47.964;7.982;2023-05-20T11:10:26;96477.22;;;16.31;63.33
48390;BME280;34643;47.964;7.982;2023-05-20T11:15:26;96477.84;;;16.35;63.22
48390;BME280;34643;47.964;7.982;2023-05-20T11:20:27;96482.09;;;16.36;63.12
48390;BME280;34643;47.964;7.982;2023-05-20T11:25:27;96457.81;;;16.35;63.38
48390;BME280;34643;47.964;7.982;2023-05-20T11:30:28;96447.28;;;16.37;63.15
48390;BME280;34643;47.964;7.982;2023-05-20T11:35:30;96448.25;;;16.47;63.03
48390;BME280;34643;47.964;7.982;2023-05-20T11:40:31;96443.38;;;16.43;63.16
48390;BME280;34643;47.964;7.982;2023-05-20T11:45:41;96440.06;;;16.41;63.16
48390;BME280;34643;47.964;7.982;2023-05-20T11:50:42;96433.81;;;16.43;63.08
48390;BME280;34643;47.964;7.982;2023-05-20T11:55:43;96420.78;;;16.43;63.21
48390;BME280;34643;47.964;7.982;2023-05-20T12:00:44;96417.94;;;16.46;63.37
48390;BME280;34643;47.964;7.982;2023-05-20T12:05:45;96424.09;;;16.45;63.43
48390;BME280;34643;47.964;7.982;2023-05-20T12:10:47;96423.13;;;16.46;63.38
48390;BME280;34643;47.964;7.982;2023-05-20T12:15:47;96414.38;;;16.47;63.29
48390;BME280;34643;47.964;7.982;2023-05-20T12:20:47;96411.41;;;16.52;63.49
48390;BME280;34643;47.964;7.982;2023-05-20T12:25:48;96395.94;;;16.50;63.33
48390;BME280;34643;47.964;7.982;2023-05-20T12:30:48;96389.75;;;16.51;63.49
48390;BME280;34643;47.964;7.982;2023-05-20T12:35:49;96381.81;;;16.53;63.52
48390;BME280;34643;47.964;7.982;2023-05-20T12:40:49;96379.34;;;16.51;63.53
48390;BME280;34643;47.964;7.982;2023-05-20T12:45:50;96364.53;;;16.52;63.75
48390;BME280;34643;47.964;7.982;2023-05-20T12:50:51;96364.28;;;16.55;63.45
48390;BME280;34643;47.964;7.982;2023-05-20T12:55:51;96360.16;;;16.52;63.58
48390;BME280;34643;47.964;7.982;2023-05-20T13:00:51;96364.06;;;16.58;63.56
48390;BME280;34643;47.964;7.982;2023-05-20T13:05:52;96376.50;;;16.54;63.51
48390;BME280;34643;47.964;7.982;2023-05-20T13:10:52;96379.22;;;16.53;63.63
48390;BME280;34643;47.964;7.982;2023-05-20T13:15:53;96384.19;;;16.56;63.63
48390;BME280;34643;47.964;7.982;2023-05-20T13:20:53;96378.13;;;16.56;63.63
48390;BME280;34643;47.964;7.982;2023-05-20T13:25:53;96373.78;;;16.56;63.41
48390;BME280;34643;47.964;7.982;2023-05-20T13:30:54;96368.69;;;16.54;63.44
48390;BME280;34643;47.964;7.982;2023-05-20T13:35:54;96365.97;;;16.56;63.46
48390;BME280;34643;47.964;7.982;2023-05-20T13:40:54;96356.34;;;16.57;63.60
48390;BME280;34643;47.964;7.982;2023-05-20T13:45:58;96346.75;;;16.57;63.57
48390;BME280;34643;47.964;7.982;2023-05-20T13:50:58;96355.41;;;16.58;63.65
48390;BME280;34643;47.964;7.982;2023-05-20T13:56:00;96357.88;;;16.59;63.59
48390;BME280;34643;47.964;7.982;2023-05-20T14:01:01;96352.66;;;16.59;63.39
48390;BME280;34643;47.964;7.982;2023-05-20T14:06:03;96355.41;;;16.58;63.54
48390;BME280;34643;47.964;7.982;2023-05-20T14:11:03;96346.41;;;16.62;63.49
48390;BME280;34643;47.964;7.982;2023-05-20T14:16:04;96337.78;;;16.61;63.29
48390;BME280;34643;47.964;7.982;2023-05-20T14:21:04;96339.41;;;16.62;63.22
48390;BME280;34643;47.964;7.982;2023-05-20T14:26:04;96342.97;;;16.61;63.30
48390;BME280;34643;47.964;7.982;2023-05-20T14:31:05;96339.41;;;16.62;63.39
48390;BME280;34643;47.964;7.982;2023-05-20T14:36:05;96346.19;;;16.65;63.39
48390;BME280;34643;47.964;7.982;2023-05-20T14:41:06;96348.78;;;16.65;63.07
48390;BME280;34643;47.964;7.982;2023-05-20T14:46:06;96357.53;;;16.64;63.22
48390;BME280;34643;47.964;7.982;2023-05-20T14:51:06;96346.28;;;16.63;63.34
48390;BME280;34643;47.964;7.982;2023-05-20T14:56:06;96352.31;;;16.64;63.37
48390;BME280;34643;47.964;7.982;2023-05-20T15:01:07;96361.06;;;16.63;63.32
48390;BME280;34643;47.964;7.982;2023-05-20T15:06:07;96366.28;;;16.63;63.45
48390;BME280;34643;47.964;7.982;2023-05-20T15:11:07;96366.28;;;16.63;63.22
48390;BME280;34643;47.964;7.982;2023-05-20T15:16:07;96367.97;;;16.64;63.51
48390;BME280;34643;47.964;7.982;2023-05-20T15:21:08;96357.53;;;16.64;63.57
48390;BME280;34643;47.964;7.982;2023-05-20T15:26:08;96358.34;;;16.64;63.48
48390;BME280;34643;47.964;7.982;2023-05-20T15:31:12;96354.94;;;16.64;63.43
48390;BME280;34643;47.964;7.982;2023-05-20T15:36:12;96357.53;;;16.64;63.52
48390;BME280;34643;47.964;7.982;2023-05-20T15:41:12;96367.97;;;16.64;63.49
48390;BME280;34643;47.964;7.982;2023-05-20T15:46:13;96369.63;;;16.65;63.50
48390;BME280;34643;47.964;7.982;2023-05-20T15:51:13;96374.97;;;16.63;63.42
48390;BME280;34643;47.964;7.982;2023-05-20T15:56:14;96375.78;;;16.64;63.48
48390;BME280;34643;47.964;7.982;2023-05-20T16:01:14;96367.13;;;16.63;63.40
48390;BME280;34643;47.964;7.982;2023-05-20T16:06:14;96367.97;;;16.64;63.32
48390;BME280;34643;47.964;7.982;2023-05-20T16:11:15;96360.16;;;16.64;63.39
48390;BME280;34643;47.964;7.982;2023-05-20T16:16:15;96354.94;;;16.64;63.39
48390;BME280;34643;47.964;7.982;2023-05-20T16:21:15;96361.69;;;16.66;63.38
48390;BME280;34643;47.964;7.982;2023-05-20T16:26:16;96374.72;;;16.66;63.33
48390;BME280;34643;47.964;7.982;2023-05-20T16:31:16;96362.63;;;16.65;63.40
48390;BME280;34643;47.964;7.982;2023-05-20T16:36:16;96358.25;;;16.66;63.51
48390;BME280;34643;47.964;7.982;2023-05-20T16:41:17;96353.16;;;16.64;63.46
48390;BME280;34643;47.964;7.982;2023-05-20T16:46:17;96360.84;;;16.66;63.58
48390;BME280;34643;47.964;7.982;2023-05-20T16:51:17;96360.03;;;16.65;63.50
48390;BME280;34643;47.964;7.982;2023-05-20T16:56:18;96359.78;;;16.68;63.38
48390;BME280;34643;47.964;7.982;2023-05-20T17:01:20;96363.34;;;16.67;63.38
48390;BME280;34643;47.964;7.982;2023-05-20T17:06:21;96365.13;;;16.67;63.46
48390;BME280;34643;47.964;7.982;2023-05-20T17:11:22;96371.16;;;16.67;63.42
48390;BME280;34643;47.964;7.982;2023-05-20T17:16:23;96370.34;;;16.67;63.41
48390;BME280;34643;47.964;7.982;2023-05-20T17:21:23;96365.13;;;16.67;63.65
48390;BME280;34643;47.964;7.982;2023-05-20T17:26:24;96371.97;;;16.68;63.63
48390;BME280;34643;47.964;7.982;2023-05-20T17:31:24;96371.03;;;16.69;63.52
48390;BME280;34643;47.964;7.982;2023-05-20T17:36:25;96377.19;;;16.68;63.74
48390;BME280;34643;47.964;7.982;2023-05-20T17:41:25;96384.19;;;16.67;63.74
48390;BME280;34643;47.964;7.982;2023-05-20T17:46:26;96389.28;;;16.69;63.62
48390;BME280;34643;47.964;7.982;2023-05-20T17:51:27;96394.50;;;16.69;63.75
48390;BME280;34643;47.964;7.982;2023-05-20T17:56:27;96397.91;;;16.69;63.58
48390;BME280;34643;47.964;7.982;2023-05-20T18:01:27;96396.28;;;16.68;63.62
48390;BME280;34643;47.964;7.982;2023-05-20T18:06:28;96400.53;;;16.69;63.83
48390;BME280;34643;47.964;7.982;2023-05-20T18:11:29;96399.72;;;16.69;63.75
48390;BME280;34643;47.964;7.982;2023-05-20T18:16:30;96397.91;;;16.69;63.92
48390;BME280;34643;47.964;7.982;2023-05-20T18:21:31;96390.22;;;16.68;63.87
48390;BME280;34643;47.964;7.982;2023-05-20T18:26:31;96391.78;;;16.70;63.92
48390;BME280;34643;47.964;7.982;2023-05-20T18:31:31;96388.94;;;16.73;63.73
48390;BME280;34643;47.964;7.982;2023-05-20T18:36:32;96401.34;;;16.81;63.82
48390;BME280;34643;47.964;7.982;2023-05-20T18:41:32;96403.50;;;16.76;63.98
48390;BME280;34643;47.964;7.982;2023-05-20T18:46:33;96401.97;;;16.73;64.25
48390;BME280;34643;47.964;7.982;2023-05-20T18:51:33;96404.44;;;16.75;64.43
48390;BME280;34643;47.964;7.982;2023-05-20T18:56:33;96403.72;;;16.73;64.51
48390;BME280;34643;47.964;7.982;2023-05-20T19:01:34;96401.13;;;16.73;64.33
48390;BME280;34643;47.964;7.982;2023-05-20T19:06:35;96407.19;;;16.73;64.56
48390;BME280;34643;47.964;7.982;2023-05-20T19:11:36;96398.50;;;16.73;64.62
48390;BME280;34643;47.964;7.982;2023-05-20T19:16:37;96395.09;;;16.72;64.79
48390;BME280;34643;47.964;7.982;2023-05-20T19:21:37;96393.28;;;16.73;64.55
48390;BME280;34643;47.964;7.982;2023-05-20T19:26:40;96400.19;;;16.74;64.76
48390;BME280;34643;47.964;7.982;2023-05-20T19:31:40;96400.19;;;16.74;64.58
48390;BME280;34643;47.964;7.982;2023-05-20T19:36:42;96402.78;;;16.74;64.79
48390;BME280;34643;47.964;7.982;2023-05-20T19:41:43;96401.13;;;16.73;64.89
48390;BME280;34643;47.964;7.982;2023-05-20T19:46:43;96407.03;;;16.75;64.85
48390;BME280;34643;47.964;7.982;2023-05-20T19:51:44;96401.97;;;16.73;65.07
48390;BME280;34643;47.964;7.982;2023-05-20T19:56:44;96408.00;;;16.74;65.09
48390;BME280;34643;47.964;7.982;2023-05-20T20:01:45;96405.41;;;16.74;64.87
48390;BME280;34643;47.964;7.982;2023-05-20T20:06:45;96403.72;;;16.73;65.08
48390;BME280;34643;47.964;7.982;2023-05-20T20:11:46;96398.50;;;16.73;64.93
48390;BME280;34643;47.964;7.982;2023-05-20T20:16:47;96401.81;;;16.75;64.96
48390;BME280;34643;47.964;7.982;2023-05-20T20:21:48;96406.22;;;16.75;64.77
48390;BME280;34643;47.964;7.982;2023-05-20T20:26:49;96401.00;;;16.75;64.97
48390;BME280;34643;47.964;7.982;2023-05-20T20:31:52;96401.81;;;16.75;64.87
48390;BME280;34643;47.964;7.982;2023-05-20T20:36:53;96399.22;;;16.75;64.87
48390;BME280;34643;47.964;7.982;2023-05-20T20:41:53;96400.06;;;16.76;65.10
48390;BME280;34643;47.964;7.982;2023-05-20T20:46:54;96397.34;;;16.77;65.53
48390;BME280;34643;47.964;7.982;2023-05-20T20:51:57;96386.91;;;16.77;65.97
48390;BME280;34643;47.964;7.982;2023-05-20T20:56:57;96382.53;;;16.78;66.18
48390;BME280;34643;47.964;7.982;2023-05-20T21:01:58;96373.88;;;16.77;66.14
48390;BME280;34643;47.964;7.982;2023-05-20T21:06:59;96370.31;;;16.78;66.39
48390;BME280;34643;47.964;7.982;2023-05-20T21:12:00;96365.09;;;16.78;66.24
48390;BME280;34643;47.964;7.982;2023-05-20T21:17:01;96360.72;;;16.79;66.39
48390;BME280;34643;47.964;7.982;2023-05-20T21:22:01;96362.38;;;16.80;66.53
48390;BME280;34643;47.964;7.982;2023-05-20T21:27:01;96362.38;;;16.80;66.51
48390;BME280;34643;47.964;7.982;2023-05-20T21:32:02;96358.09;;;16.79;66.51
48390;BME280;34643;47.964;7.982;2023-05-20T21:37:02;96350.16;;;16.80;66.68
48390;BME280;34643;47.964;7.982;2023-05-20T21:42:03;96346.75;;;16.80;66.56
48390;BME280;34643;47.964;7.982;2023-05-20T21:47:03;96353.63;;;16.81;66.82
48390;BME280;34643;47.964;7.982;2023-05-20T21:52:03;96343.19;;;16.81;66.86
48390;BME280;34643;47.964;7.982;2023-05-20T21:57:04;96328.38;;;16.81;66.90
48390;BME280;34643;47.964;7.982;2023-05-20T22:02:04;96330.16;;;16.81;66.67
48390;BME280;34643;47.964;7.982;2023-05-20T22:07:05;96320.56;;;16.81;66.69
48390;BME280;34643;47.964;7.982;2023-05-20T22:12:05;96322.19;;;16.82;66.72
48390;BME280;34643;47.964;7.982;2023-05-20T22:17:06;96309.16;;;16.82;66.96
48390;BME280;34643;47.964;7.982;2023-05-20T22:22:07;96312.63;;;16.83;66.89
48390;BME280;34643;47.964;7.982;2023-05-20T22:27:07;96308.25;;;16.83;66.86
48390;BME280;34643;47.964;7.982;2023-05-20T22:32:07;96307.41;;;16.83;66.93
48390;BME280;34643;47.964;7.982;2023-05-20T22:37:08;96300.31;;;16.85;66.82
48390;BME280;34643;47.964;7.982;2023-05-20T22:42:08;96305.66;;;16.83;66.73
48390;BME280;34643;47.964;7.982;2023-05-20T22:47:08;96303.03;;;16.83;66.97
48390;BME280;34643;47.964;7.982;2023-05-20T22:52:08;96302.19;;;16.83;66.87
48390;BME280;34643;47.964;7.982;2023-05-20T22:57:09;96302.13;;;16.84;67.00
48390;BME280;34643;47.964;7.982;2023-05-20T23:02:09;96289.06;;;16.84;66.95
48390;BME280;34643;47.964;7.982;2023-05-20T23:07:10;96291.69;;;16.84;67.00
48390;BME280;34643;47.964;7.982;2023-05-20T23:12:14;96283.88;;;16.84;66.99
48390;BME280;34643;47.964;7.982;2023-05-20T23:17:14;96285.50;;;16.85;67.01
48390;BME280;34643;47.964;7.982;2023-05-20T23:22:15;96280.28;;;16.85;67.18
48390;BME280;34643;47.964;7.982;2023-05-20T23:27:15;96277.69;;;16.85;67.06
48390;BME280;34643;47.964;7.982;2023-05-20T23:32:15;96279.34;;;16.86;67.08
48390;BME280;34643;47.964;7.982;2023-05-20T23:37:16;96281.97;;;16.86;67.18
48390;BME280;34643;47.964;7.982;2023-05-20T23:42:16;96269.75;;;16.87;67.35
48390;BME280;34643;47.964;7.982;2023-05-20T23:47:16;96267.97;;;16.87;67.39
48390;BME280;34643;47.964;7.982;2023-05-20T23:52:17;96263.72;;;16.86;67.32
48390;BME280;34643;47.964;7.982;2023-05-20T23:57:18;96255.91;;;16.86;67.18
